Time;durP1;ratioP1;P1;durP2;ratioP2;P2;SDS_P1;SDS_P2;PMS_P1;PMS_P2;Temp;Humidity;BMP_temperature;BMP_pressure;BME280_temperature;BME280_humidity;BME280_pressure;Samples;Min_cycle;Max_cycle;Signal;HPM_P1;HPM_P2
2021/09/26 00:01:25;;;;;;;5.10;4.07;;;22.10;86.80;;;;;;5031437;28;20049;-79
2021/09/26 00:03:52;;;;;;;5.57;4.35;;;22.10;86.90;;;;;;5030590;28;20476;-79
2021/09/26 00:06:18;;;;;;;5.70;4.90;;;22.20;86.80;;;;;;5023295;28;20034;-79
2021/09/26 00:08:43;;;;;;;6.80;4.85;;;22.20;86.70;;;;;;5021536;28;20029;-80
2021/09/26 00:11:09;;;;;;;4.97;3.92;;;22.10;86.50;;;;;;5011369;28;20021;-80
2021/09/26 00:13:37;;;;;;;6.30;3.72;;;22.10;86.70;;;;;;5010660;28;20481;-81
2021/09/26 00:16:04;;;;;;;6.03;4.43;;;22.10;86.80;;;;;;5006319;28;20029;-79
2021/09/26 00:18:30;;;;;;;4.88;4.03;;;22.10;86.90;;;;;;5016787;28;20389;-80
2021/09/26 00:20:56;;;;;;;4.93;3.95;;;22.10;87.10;;;;;;5005091;28;20405;-79
2021/09/26 00:23:23;;;;;;;5.28;3.97;;;22.10;87.00;;;;;;5011435;28;20042;-78
2021/09/26 00:25:51;;;;;;;5.30;3.92;;;22.10;87.10;;;;;;5011102;28;20037;-79
2021/09/26 00:28:18;;;;;;;6.05;4.20;;;22.10;87.10;;;;;;5011231;28;20640;-80
2021/09/26 00:30:44;;;;;;;5.03;3.65;;;22.10;87.00;;;;;;5010946;28;20052;-81
2021/09/26 00:33:10;;;;;;;5.95;4.18;;;22.10;86.90;;;;;;5011368;28;20477;-81
2021/09/26 00:35:36;;;;;;;5.65;4.38;;;22.10;87.10;;;;;;5015469;28;20469;-82
2021/09/26 00:38:02;;;;;;;8.05;4.63;;;22.10;87.00;;;;;;5030806;28;20025;-82
2021/09/26 00:40:27;;;;;;;4.60;3.80;;;22.10;87.20;;;;;;5030189;28;20045;-82
2021/09/26 00:42:53;;;;;;;6.10;4.55;;;22.00;87.00;;;;;;5030306;28;20029;-80
2021/09/26 00:45:19;;;;;;;5.65;4.30;;;22.00;86.80;;;;;;5030129;28;20030;-80
2021/09/26 00:47:45;;;;;;;6.10;4.47;;;22.00;86.90;;;;;;5028367;28;20041;-80
2021/09/26 00:50:11;;;;;;;4.40;3.88;;;22.00;86.50;;;;;;5028820;28;20038;-81
2021/09/26 00:52:39;;;;;;;5.45;4.05;;;22.00;86.70;;;;;;5012209;28;20539;-80
2021/09/26 00:55:06;;;;;;;5.32;3.75;;;22.00;87.50;;;;;;5012564;28;20551;-80
2021/09/26 00:57:33;;;;;;;6.20;4.10;;;22.00;86.60;;;;;;5031031;28;20010;-80
2021/09/26 00:59:59;;;;;;;5.43;4.05;;;22.00;86.70;;;;;;5030621;28;20397;-81
2021/09/26 01:02:24;;;;;;;5.82;4.20;;;22.00;87.00;;;;;;5030592;28;20511;-80
2021/09/26 01:04:50;;;;;;;5.50;4.22;;;21.90;86.90;;;;;;5030219;28;20026;-81
2021/09/26 01:07:41;;;;;;;5.07;4.18;;;22.00;86.90;;;;;;5030653;28;20026;-82
2021/09/26 01:10:09;;;;;;;5.15;4.10;;;22.00;86.90;;;;;;5030832;28;20028;-81
2021/09/26 01:12:40;;;;;;;8.10;4.50;;;22.00;86.80;;;;;;5012554;28;20021;-82
2021/09/26 01:15:20;;;;;;;6.07;4.70;;;22.00;87.10;;;;;;5030406;28;20033;-82
2021/09/26 01:18:32;;;;;;;4.93;4.18;;;22.00;87.00;;;;;;5030451;28;20025;-82
2021/09/26 01:21:22;;;;;;;7.53;4.60;;;21.90;87.00;;;;;;4990096;28;20033;-82
2021/09/26 01:24:14;;;;;;;4.50;3.38;;;22.00;87.00;;;;;;5030400;28;20401;-82
2021/09/26 01:27:01;;;;;;;5.28;4.47;;;22.00;87.00;;;;;;5033516;28;20025;-81
2021/09/26 01:29:32;;;;;;;5.40;4.30;;;22.00;87.00;;;;;;5034250;28;20037;-81
2021/09/26 01:32:05;;;;;;;4.60;3.90;;;21.90;87.00;;;;;;5033840;28;20025;-81
2021/09/26 01:34:38;;;;;;;6.15;4.60;;;22.00;87.90;;;;;;5034351;28;20457;-81
2021/09/26 01:37:30;;;;;;;7.20;4.80;;;21.90;87.00;;;;;;5034281;28;20026;-81
2021/09/26 01:40:06;;;;;;;5.53;4.38;;;21.90;87.20;;;;;;5033310;28;20120;-82
2021/09/26 01:42:48;;;;;;;8.23;5.28;;;21.90;87.10;;;;;;5034312;28;20112;-81
2021/09/26 01:45:34;;;;;;;7.50;4.72;;;21.90;87.20;;;;;;5034057;28;20104;-81
2021/09/26 01:48:04;;;;;;;7.85;5.00;;;21.90;87.10;;;;;;5034239;28;20112;-80
2021/09/26 01:50:31;;;;;;;5.70;4.25;;;21.90;87.20;;;;;;5016092;28;20034;-80
2021/09/26 01:53:00;;;;;;;5.97;4.43;;;21.90;87.20;;;;;;5015744;28;20037;-80
2021/09/26 01:55:27;;;;;;;5.22;4.30;;;21.90;87.40;;;;;;5015914;28;20552;-81
2021/09/26 01:57:55;;;;;;;5.43;4.80;;;21.90;87.10;;;;;;5033273;28;20044;-80
2021/09/26 02:00:21;;;;;;;7.05;4.43;;;21.90;87.10;;;;;;5033472;28;20014;-80
2021/09/26 02:02:51;;;;;;;5.53;4.50;;;21.90;87.10;;;;;;5033131;28;20033;-81
2021/09/26 02:05:18;;;;;;;5.43;4.18;;;21.90;86.80;;;;;;5033498;28;20033;-80
2021/09/26 02:07:49;;;;;;;5.78;4.50;;;21.90;87.00;;;;;;5033238;28;20056;-80
2021/09/26 02:10:19;;;;;;;5.13;3.97;;;21.80;87.00;;;;;;5033367;28;20485;-80
2021/09/26 02:12:46;;;;;;;5.70;4.15;;;21.80;87.00;;;;;;5033266;28;20080;-79
2021/09/26 02:15:21;;;;;;;6.22;4.40;;;21.80;87.20;;;;;;5033207;28;20021;-80
2021/09/26 02:17:48;;;;;;;6.20;5.20;;;21.80;87.00;;;;;;5015170;28;20065;-80
2021/09/26 02:20:16;;;;;;;7.50;4.55;;;21.80;87.20;;;;;;5033351;28;20030;-80
2021/09/26 02:22:43;;;;;;;6.55;4.90;;;21.90;87.00;;;;;;5033116;28;20037;-80
2021/09/26 02:25:10;;;;;;;5.88;4.57;;;21.80;87.20;;;;;;5032999;28;20067;-80
2021/09/26 02:27:39;;;;;;;7.47;4.72;;;21.80;87.20;;;;;;5014906;28;20061;-80
2021/09/26 02:30:06;;;;;;;6.10;4.25;;;21.80;87.40;;;;;;5033088;28;20060;-80
2021/09/26 02:32:32;;;;;;;6.07;4.53;;;21.90;87.40;;;;;;5033320;28;20033;-80
2021/09/26 02:34:58;;;;;;;5.88;4.50;;;21.80;87.40;;;;;;5032730;28;20025;-80
2021/09/26 02:37:24;;;;;;;4.95;4.03;;;21.80;87.40;;;;;;5032370;28;20481;-81
2021/09/26 02:39:50;;;;;;;6.15;4.75;;;21.80;87.50;;;;;;5032693;28;20072;-81
2021/09/26 02:42:42;;;;;;;6.63;4.63;;;21.80;87.40;;;;;;5015024;28;20029;-81
2021/09/26 02:45:27;;;;;;;9.60;5.15;;;21.80;87.40;;;;;;5033136;28;20025;-81
2021/09/26 02:48:07;;;;;;;5.50;5.00;;;21.80;87.60;;;;;;5032382;28;20036;-80
2021/09/26 02:50:33;;;;;;;6.32;4.60;;;21.80;87.40;;;;;;5033139;28;20048;-80
2021/09/26 02:53:00;;;;;;;5.28;4.22;;;21.80;87.50;;;;;;5032376;28;20489;-80
2021/09/26 02:55:27;;;;;;;7.20;4.57;;;21.80;87.50;;;;;;5032476;28;20033;-80
2021/09/26 02:57:53;;;;;;;6.85;5.13;;;21.80;87.50;;;;;;5032249;28;20501;-80
2021/09/26 03:00:18;;;;;;;5.55;4.55;;;21.80;87.50;;;;;;5032400;28;20032;-81
2021/09/26 03:02:48;;;;;;;6.13;4.82;;;21.80;87.70;;;;;;5014348;28;20041;-81
2021/09/26 03:05:13;;;;;;;7.30;5.10;;;21.80;87.60;;;;;;5032364;28;20045;-81
2021/09/26 03:07:39;;;;;;;5.85;4.70;;;21.80;87.70;;;;;;5031758;28;20080;-81
2021/09/26 03:10:06;;;;;;;6.43;4.50;;;21.80;87.50;;;;;;5032205;28;20446;-80
2021/09/26 03:12:33;;;;;;;5.20;4.10;;;21.80;87.50;;;;;;5032486;28;20060;-81
2021/09/26 03:14:59;;;;;;;5.03;4.32;;;21.80;87.60;;;;;;5032041;28;20139;-81
2021/09/26 03:17:24;;;;;;;5.93;4.38;;;21.70;87.40;;;;;;5032274;28;20047;-81
2021/09/26 03:19:50;;;;;;;8.13;4.38;;;21.80;87.40;;;;;;5031957;28;20033;-80
2021/09/26 03:22:16;;;;;;;5.18;4.28;;;21.80;87.60;;;;;;5014440;28;20480;-80
2021/09/26 03:24:42;;;;;;;4.68;4.00;;;21.70;87.70;;;;;;5031847;28;20496;-80
2021/09/26 03:27:12;;;;;;;5.80;4.50;;;21.70;87.80;;;;;;5032030;28;20022;-80
2021/09/26 03:29:41;;;;;;;6.35;4.80;;;21.70;87.80;;;;;;5031880;28;20083;-81
2021/09/26 03:32:07;;;;;;;5.75;4.50;;;21.70;87.60;;;;;;5031939;28;20111;-80
2021/09/26 03:34:33;;;;;;;7.05;5.10;;;21.70;87.40;;;;;;5014414;28;20072;-82
2021/09/26 03:36:59;;;;;;;5.15;4.07;;;21.80;87.70;;;;;;5031616;28;20033;-82
2021/09/26 03:39:25;;;;;;;5.38;4.88;;;21.70;87.60;;;;;;5014036;28;20030;-80
2021/09/26 03:41:51;;;;;;;6.63;5.28;;;21.70;87.50;;;;;;5031575;28;20028;-82
2021/09/26 03:44:16;;;;;;;5.60;4.43;;;21.80;87.80;;;;;;5031609;28;20022;-82
2021/09/26 03:46:42;;;;;;;6.03;4.53;;;21.70;87.60;;;;;;5031543;28;20033;-81
2021/09/26 03:49:08;;;;;;;5.72;4.35;;;21.70;88.00;;;;;;5012826;28;20508;-81
2021/09/26 03:51:34;;;;;;;5.20;4.40;;;21.70;87.80;;;;;;5031836;28;20067;-81
2021/09/26 03:53:59;;;;;;;6.38;4.50;;;21.70;87.90;;;;;;5032064;28;20077;-80
2021/09/26 03:56:25;;;;;;;5.85;4.97;;;21.70;87.90;;;;;;5031367;28;20026;-80
2021/09/26 03:58:51;;;;;;;6.32;4.57;;;21.70;88.00;;;;;;5031194;28;20469;-79
2021/09/26 04:01:17;;;;;;;7.38;5.15;;;21.70;88.20;;;;;;5031236;28;20083;-80
2021/09/26 04:03:42;;;;;;;6.32;4.85;;;21.70;88.10;;;;;;5031329;28;20523;-80
2021/09/26 04:06:10;;;;;;;5.72;4.20;;;21.70;88.00;;;;;;5031325;28;20017;-80
2021/09/26 04:08:38;;;;;;;5.43;4.78;;;21.70;88.20;;;;;;5031011;28;20048;-80
2021/09/26 04:11:07;;;;;;;6.15;4.70;;;21.70;88.20;;;;;;5013718;28;20065;-80
2021/09/26 04:13:33;;;;;;;6.18;4.88;;;21.70;88.20;;;;;;5031514;28;20071;-80
2021/09/26 04:15:59;;;;;;;5.40;4.65;;;21.70;88.00;;;;;;5031060;28;20049;-80
2021/09/26 04:18:25;;;;;;;5.82;4.53;;;21.70;88.10;;;;;;5030942;28;20148;-81
2021/09/26 04:20:50;;;;;;;5.78;4.75;;;21.70;88.30;;;;;;5030922;28;20560;-81
2021/09/26 04:23:16;;;;;;;6.22;5.18;;;21.60;88.30;;;;;;5031111;28;20071;-81
2021/09/26 04:25:42;;;;;;;7.10;5.07;;;21.60;88.30;;;;;;5030792;28;20057;-80
2021/09/26 04:28:07;;;;;;;5.45;4.53;;;21.70;88.50;;;;;;5031121;28;20037;-80
2021/09/26 04:30:33;;;;;;;7.72;5.60;;;21.60;88.50;;;;;;5031209;28;20037;-81
2021/09/26 04:32:59;;;;;;;5.85;4.97;;;21.60;88.50;;;;;;5030507;28;20032;-81
2021/09/26 04:35:25;;;;;;;6.95;5.65;;;21.60;88.50;;;;;;5031037;28;20056;-81
2021/09/26 04:37:52;;;;;;;7.28;5.80;;;21.60;88.30;;;;;;5030741;28;20080;-81
2021/09/26 04:40:18;;;;;;;6.30;5.30;;;21.60;88.20;;;;;;5031080;28;20503;-81
2021/09/26 04:42:44;;;;;;;7.00;5.20;;;21.60;88.40;;;;;;5013044;28;20026;-81
2021/09/26 04:45:11;;;;;;;6.90;5.18;;;21.60;88.40;;;;;;5013329;28;20059;-81
2021/09/26 04:47:37;;;;;;;5.68;4.65;;;21.70;88.30;;;;;;5012862;28;20044;-82
2021/09/26 04:50:05;;;;;;;6.93;5.07;;;21.70;88.50;;;;;;5031268;28;20026;-79
2021/09/26 04:52:35;;;;;;;6.63;5.20;;;21.60;88.40;;;;;;5031296;28;20021;-80
2021/09/26 04:55:01;;;;;;;7.30;5.07;;;21.60;88.40;;;;;;5031121;28;20026;-80
2021/09/26 04:57:27;;;;;;;7.43;4.90;;;21.60;88.40;;;;;;5030888;28;20374;-80
2021/09/26 04:59:52;;;;;;;5.75;4.78;;;21.60;88.60;;;;;;5032816;28;20493;-80
2021/09/26 05:02:18;;;;;;;6.38;5.03;;;21.60;88.40;;;;;;5034622;28;20029;-80
2021/09/26 05:04:44;;;;;;;5.55;4.28;;;21.60;88.60;;;;;;5034495;28;20030;-80
2021/09/26 05:07:10;;;;;;;8.32;5.07;;;21.60;88.60;;;;;;5034601;28;20389;-80
2021/09/26 05:09:35;;;;;;;6.10;4.60;;;21.60;88.50;;;;;;5034174;28;20060;-80
2021/09/26 05:12:01;;;;;;;5.45;4.80;;;21.60;88.50;;;;;;5034805;28;20060;-80
2021/09/26 05:14:27;;;;;;;6.78;5.28;;;21.60;88.50;;;;;;5034318;28;20056;-80
2021/09/26 05:16:52;;;;;;;6.15;5.05;;;21.60;88.50;;;;;;5034191;28;20080;-80
2021/09/26 05:19:18;;;;;;;7.93;5.05;;;21.60;89.30;;;;;;5034403;28;20100;-80
2021/09/26 05:21:43;;;;;;;7.00;4.63;;;21.60;88.60;;;;;;5034088;28;20416;-81
2021/09/26 05:24:09;;;;;;;5.40;4.43;;;21.60;88.60;;;;;;5034373;28;20025;-80
2021/09/26 05:26:35;;;;;;;5.35;4.25;;;21.60;88.80;;;;;;5033975;28;20029;-80
2021/09/26 05:29:03;;;;;;;6.28;4.65;;;21.60;88.80;;;;;;5034510;28;20120;-80
2021/09/26 05:31:29;;;;;;;5.88;4.50;;;21.50;88.70;;;;;;5033968;28;20557;-81
2021/09/26 05:33:56;;;;;;;5.97;4.47;;;21.60;88.90;;;;;;5033852;28;20108;-81
2021/09/26 05:36:22;;;;;;;6.18;4.85;;;21.50;88.90;;;;;;5034165;28;20050;-80
2021/09/26 05:38:47;;;;;;;5.78;5.10;;;21.50;88.90;;;;;;5033659;28;20068;-80
2021/09/26 05:41:13;;;;;;;6.50;4.75;;;21.50;88.90;;;;;;5033891;28;20072;-81
2021/09/26 05:43:38;;;;;;;6.60;5.60;;;21.50;88.80;;;;;;5033541;28;20037;-81
2021/09/26 05:46:04;;;;;;;7.28;5.03;;;21.50;88.80;;;;;;5034215;28;20489;-81
2021/09/26 05:48:30;;;;;;;7.07;5.13;;;21.50;88.60;;;;;;5034120;28;20553;-81
2021/09/26 05:50:55;;;;;;;8.43;5.18;;;21.50;88.80;;;;;;5033468;28;20100;-81
2021/09/26 05:53:21;;;;;;;6.53;5.63;;;21.50;88.70;;;;;;5033858;28;20053;-80
2021/09/26 05:55:47;;;;;;;5.80;5.05;;;21.50;88.90;;;;;;5033554;28;20045;-80
2021/09/26 05:58:13;;;;;;;6.00;5.40;;;21.50;88.90;;;;;;5015910;28;20083;-80
2021/09/26 06:00:39;;;;;;;5.80;5.00;;;21.50;89.00;;;;;;5033152;28;20029;-80
2021/09/26 06:03:05;;;;;;;6.68;5.18;;;21.50;89.00;;;;;;5033598;28;20029;-80
2021/09/26 06:05:30;;;;;;;6.68;4.60;;;21.50;89.10;;;;;;5033793;28;20492;-80
2021/09/26 06:07:56;;;;;;;6.18;5.13;;;21.50;89.00;;;;;;5033087;28;20041;-81
2021/09/26 06:10:21;;;;;;;5.82;4.97;;;21.50;89.00;;;;;;5032967;28;20489;-81
2021/09/26 06:12:47;;;;;;;6.22;5.10;;;21.50;89.00;;;;;;5032721;28;20505;-80
2021/09/26 06:15:13;;;;;;;6.35;5.07;;;21.50;89.00;;;;;;5033312;28;20029;-80
2021/09/26 06:17:39;;;;;;;5.85;4.82;;;21.50;89.00;;;;;;5033109;28;20108;-80
2021/09/26 06:20:06;;;;;;;6.88;4.50;;;21.50;89.00;;;;;;5033254;28;20100;-80
2021/09/26 06:22:32;;;;;;;6.03;4.70;;;21.50;88.90;;;;;;5033596;28;20481;-80
2021/09/26 06:24:58;;;;;;;5.65;4.93;;;21.50;89.10;;;;;;5032920;28;20034;-80
2021/09/26 06:27:25;;;;;;;6.60;5.53;;;21.50;89.20;;;;;;5015089;28;20037;-80
2021/09/26 06:29:51;;;;;;;8.43;5.32;;;21.50;89.30;;;;;;5032816;28;20072;-80
2021/09/26 06:32:16;;;;;;;6.38;4.95;;;21.50;89.30;;;;;;5033121;28;20021;-80
2021/09/26 06:34:42;;;;;;;5.60;4.50;;;21.50;89.30;;;;;;5032678;28;20512;-80
2021/09/26 06:37:08;;;;;;;5.85;4.93;;;21.40;89.30;;;;;;5032902;28;20017;-79
2021/09/26 06:39:35;;;;;;;5.60;4.63;;;21.40;89.40;;;;;;5033007;28;20018;-79
2021/09/26 06:42:01;;;;;;;6.10;5.07;;;21.40;89.40;;;;;;5033242;28;20029;-80
2021/09/26 06:44:27;;;;;;;6.15;5.10;;;21.40;89.40;;;;;;5032505;28;20104;-80
2021/09/26 06:46:53;;;;;;;6.38;4.57;;;21.40;89.40;;;;;;5032596;28;20104;-80
2021/09/26 06:49:18;;;;;;;5.57;4.40;;;21.40;89.40;;;;;;5032251;28;20435;-80
2021/09/26 06:51:45;;;;;;;5.40;3.97;;;21.40;89.40;;;;;;5032567;28;20026;-80
2021/09/26 06:54:10;;;;;;;7.35;5.22;;;21.40;89.50;;;;;;5032519;28;20044;-79
2021/09/26 06:56:36;;;;;;;6.22;4.93;;;21.40;89.40;;;;;;5032368;28;20024;-79
2021/09/26 06:59:02;;;;;;;6.25;4.72;;;21.40;89.50;;;;;;5032921;28;20068;-80
2021/09/26 07:01:30;;;;;;;6.82;4.78;;;21.40;89.40;;;;;;5032493;28;20021;-80
2021/09/26 07:03:56;;;;;;;5.13;4.45;;;21.40;89.60;;;;;;5032163;28;20032;-81
2021/09/26 07:06:22;;;;;;;5.65;4.82;;;21.40;89.50;;;;;;5032306;28;20030;-80
2021/09/26 07:08:47;;;;;;;7.13;4.65;;;21.40;89.60;;;;;;5031921;28;20445;-81
2021/09/26 07:11:13;;;;;;;5.07;4.55;;;21.40;89.70;;;;;;5032374;28;20516;-80
2021/09/26 07:13:38;;;;;;;5.13;4.50;;;21.40;89.70;;;;;;5031806;28;20493;-80
2021/09/26 07:16:04;;;;;;;6.57;5.10;;;21.40;89.80;;;;;;5032217;28;20060;-80
2021/09/26 07:18:30;;;;;;;5.28;4.70;;;21.40;89.80;;;;;;5032476;28;20049;-79
2021/09/26 07:20:55;;;;;;;6.05;5.00;;;21.40;89.80;;;;;;5031716;28;20025;-80
2021/09/26 07:23:21;;;;;;;5.70;4.97;;;21.40;89.80;;;;;;5031866;28;20053;-80
2021/09/26 07:25:47;;;;;;;5.93;4.60;;;21.40;89.80;;;;;;5031614;28;20072;-80
2021/09/26 07:28:12;;;;;;;5.75;4.18;;;21.40;89.90;;;;;;5031847;28;20060;-80
2021/09/26 07:30:38;;;;;;;5.25;4.75;;;21.40;90.00;;;;;;5031574;28;20039;-79
2021/09/26 07:33:04;;;;;;;6.70;4.88;;;21.40;90.00;;;;;;5032385;28;20018;-79
2021/09/26 07:35:29;;;;;;;5.28;4.78;;;21.40;90.10;;;;;;5031897;28;20135;-79
2021/09/26 07:37:55;;;;;;;5.57;4.50;;;21.30;90.10;;;;;;5013897;28;20108;-79
2021/09/26 07:40:21;;;;;;;5.78;4.43;;;21.40;90.10;;;;;;5013700;28;20504;-79
2021/09/26 07:42:46;;;;;;;6.13;5.07;;;21.40;90.10;;;;;;5013759;28;20022;-79
2021/09/26 07:45:13;;;;;;;5.38;4.78;;;21.40;90.10;;;;;;5013996;28;20520;-79
2021/09/26 07:47:40;;;;;;;7.05;5.30;;;21.40;90.10;;;;;;5031487;28;20391;-79
2021/09/26 07:50:07;;;;;;;5.55;4.47;;;21.40;90.10;;;;;;5031776;28;20032;-79
2021/09/26 07:52:32;;;;;;;6.63;4.72;;;21.40;90.20;;;;;;5032004;28;20021;-79
2021/09/26 07:54:58;;;;;;;6.50;4.95;;;21.40;90.20;;;;;;5013370;28;20037;-79
2021/09/26 07:57:25;;;;;;;6.75;5.05;;;21.40;90.20;;;;;;5031500;28;20028;-78
2021/09/26 07:59:53;;;;;;;6.43;4.78;;;21.40;90.20;;;;;;5031307;28;20037;-79
2021/09/26 08:02:19;;;;;;;5.63;4.60;;;21.40;90.30;;;;;;5031479;28;20071;-78
2021/09/26 08:04:45;;;;;;;5.88;4.57;;;21.40;90.30;;;;;;5026926;28;21929;-80
2021/09/26 08:07:11;;;;;;;7.15;5.00;;;21.40;90.30;;;;;;5030254;28;20018;-78
2021/09/26 08:09:36;;;;;;;6.15;5.13;;;21.40;90.40;;;;;;5029327;28;20045;-78
2021/09/26 08:12:03;;;;;;;6.63;4.65;;;21.40;90.40;;;;;;5031350;28;20018;-78
2021/09/26 08:14:30;;;;;;;5.03;4.53;;;21.40;90.40;;;;;;5025804;28;20033;-77
2021/09/26 08:16:55;;;;;;;5.35;4.85;;;21.40;90.40;;;;;;5013183;28;20112;-77
2021/09/26 08:19:22;;;;;;;5.63;4.60;;;21.30;90.40;;;;;;5030320;28;20474;-77
2021/09/26 08:21:49;;;;;;;6.82;5.10;;;21.40;90.40;;;;;;5030916;28;20413;-78
2021/09/26 08:24:14;;;;;;;6.18;5.05;;;21.40;90.50;;;;;;5030409;28;20374;-77
2021/09/26 08:26:40;;;;;;;7.22;5.00;;;21.40;90.50;;;;;;5030989;28;20147;-77
2021/09/26 08:29:06;;;;;;;5.03;4.53;;;21.40;90.60;;;;;;5030068;28;20128;-79
2021/09/26 08:31:32;;;;;;;5.95;5.35;;;21.40;90.70;;;;;;5028889;28;20497;-79
2021/09/26 08:33:57;;;;;;;6.28;5.60;;;21.40;90.80;;;;;;5003387;28;20037;-79
2021/09/26 08:36:23;;;;;;;8.10;5.05;;;21.50;90.90;;;;;;5027616;28;20511;-81
2021/09/26 08:38:49;;;;;;;15.52;13.85;;;21.50;91.00;;;;;;5026654;28;20029;-80
2021/09/26 08:41:16;;;;;;;13.35;12.00;;;21.50;91.10;;;;;;5025831;28;20025;-80
2021/09/26 08:43:42;;;;;;;12.27;11.02;;;21.50;91.10;;;;;;5023550;28;20500;-80
2021/09/26 08:46:10;;;;;;;12.40;9.38;;;21.50;91.30;;;;;;5033473;28;20022;-82
2021/09/26 08:48:38;;;;;;;14.10;10.95;;;21.60;91.50;;;;;;5036137;28;20065;-81
2021/09/26 08:51:04;;;;;;;10.70;9.38;;;21.50;91.40;;;;;;5036416;28;20378;-79
2021/09/26 08:53:30;;;;;;;14.13;10.65;;;21.60;91.60;;;;;;5035875;28;20029;-79
2021/09/26 08:55:56;;;;;;;11.85;10.23;;;21.60;91.80;;;;;;5036141;28;20037;-79
2021/09/26 08:58:22;;;;;;;13.95;9.93;;;21.60;92.00;;;;;;5018608;28;20036;-78
2021/09/26 09:00:48;;;;;;;13.13;10.25;;;21.60;92.00;;;;;;5036791;28;20025;-79
2021/09/26 09:03:15;;;;;;;30.08;13.68;;;21.70;92.20;;;;;;5037054;28;20057;-78
2021/09/26 09:05:42;;;;;;;53.00;33.80;;;21.70;92.40;;;;;;5018892;28;20401;-80
2021/09/26 09:08:14;;;;;;;17.88;14.20;;;21.70;92.50;;;;;;5036773;28;20028;-79
2021/09/26 09:10:55;;;;;;;24.00;17.33;;;21.70;92.60;;;;;;5037135;28;20473;-80
2021/09/26 09:13:31;;;;;;;19.15;15.75;;;21.80;92.80;;;;;;5036482;28;20021;-79
2021/09/26 09:16:03;;;;;;;19.80;14.43;;;21.80;92.90;;;;;;5036239;28;20087;-82
2021/09/26 09:18:54;;;;;;;18.73;14.18;;;21.80;93.00;;;;;;5036479;28;20033;-81
2021/09/26 09:21:25;;;;;;;24.25;14.00;;;21.80;93.20;;;;;;5023956;28;20022;-81
2021/09/26 09:24:14;;;;;;;19.40;12.23;;;21.90;93.50;;;;;;5010874;28;20045;-79
2021/09/26 09:26:42;;;;;;;18.33;12.73;;;21.90;93.50;;;;;;5024383;28;20105;-78
2021/09/26 09:29:08;;;;;;;20.48;13.48;;;21.90;93.60;;;;;;5029712;28;20041;-79
2021/09/26 09:31:45;;;;;;;18.25;12.60;;;21.90;93.60;;;;;;5023527;28;20393;-80
2021/09/26 09:34:30;;;;;;;13.75;11.52;;;22.00;93.80;;;;;;5026139;28;20104;-78
2021/09/26 09:37:09;;;;;;;13.88;12.25;;;22.00;93.80;;;;;;5023534;28;20103;-77
2021/09/26 09:39:36;;;;;;;16.20;11.20;;;22.00;93.30;;;;;;5025901;28;20451;-78
2021/09/26 09:42:19;;;;;;;15.45;11.40;;;22.00;93.90;;;;;;5028873;28;20017;-78
2021/09/26 09:44:45;;;;;;;14.82;10.63;;;22.00;94.10;;;;;;5028395;28;20025;-78
2021/09/26 09:47:10;;;;;;;16.00;11.13;;;22.10;94.20;;;;;;5023187;28;20025;-79
2021/09/26 09:49:36;;;;;;;15.95;11.52;;;22.10;94.10;;;;;;5025581;28;20543;-78
2021/09/26 09:52:03;;;;;;;11.73;9.65;;;22.10;93.90;;;;;;5029253;28;20381;-77
2021/09/26 09:54:33;;;;;;;14.15;9.98;;;22.10;93.90;;;;;;5033715;28;20021;-78
2021/09/26 09:57:12;;;;;;;14.52;10.65;;;22.10;93.80;;;;;;5024742;28;20029;-78
2021/09/26 09:59:38;;;;;;;11.15;9.07;;;22.10;93.80;;;;;;5032294;28;20108;-78
2021/09/26 10:02:04;;;;;;;12.82;9.30;;;22.10;93.90;;;;;;5031778;28;20134;-79
2021/09/26 10:04:37;;;;;;;17.38;10.98;;;22.20;94.20;;;;;;5032894;28;20029;-77
2021/09/26 10:07:25;;;;;;;17.20;10.45;;;22.20;94.00;;;;;;5033803;28;20407;-77
2021/09/26 10:09:53;;;;;;;14.05;10.88;;;22.20;93.90;;;;;;5033226;28;20374;-76
2021/09/26 10:12:29;;;;;;;14.23;10.50;;;22.20;93.90;;;;;;5033260;28;20016;-77
2021/09/26 10:14:58;;;;;;;14.15;9.25;;;22.20;93.80;;;;;;5033093;28;20436;-77
2021/09/26 10:17:24;;;;;;;12.63;9.82;;;22.20;93.90;;;;;;5033318;28;20112;-77
2021/09/26 10:19:50;;;;;;;12.40;10.07;;;22.30;93.70;;;;;;5032551;28;20033;-77
2021/09/26 10:22:17;;;;;;;13.90;9.30;;;22.30;93.60;;;;;;5033140;28;20018;-76
2021/09/26 10:24:51;;;;;;;13.48;10.32;;;22.30;93.50;;;;;;5032786;28;20078;-76
2021/09/26 10:27:24;;;;;;;15.43;9.77;;;22.30;93.50;;;;;;5032190;28;20053;-77
2021/09/26 10:29:57;;;;;;;12.90;9.25;;;22.30;93.50;;;;;;5013968;28;20528;-77
2021/09/26 10:32:24;;;;;;;14.20;9.55;;;22.30;93.20;;;;;;5042572;28;20076;-76
2021/09/26 10:34:50;;;;;;;15.93;11.02;;;22.40;93.60;;;;;;5032796;28;20032;-79
2021/09/26 10:37:16;;;;;;;24.67;11.63;;;22.40;93.90;;;;;;5032135;28;20018;-78
2021/09/26 10:39:43;;;;;;;21.77;11.27;;;22.40;93.80;;;;;;5021614;28;20022;-77
2021/09/26 10:42:13;;;;;;;23.45;10.70;;;22.30;93.90;;;;;;5020600;28;20028;-78
2021/09/26 10:44:48;;;;;;;17.40;10.45;;;22.40;93.80;;;;;;5003661;28;20073;-78
2021/09/26 10:47:23;;;;;;;16.23;9.57;;;22.40;93.70;;;;;;5022299;28;20080;-79
2021/09/26 10:50:14;;;;;;;17.27;10.57;;;22.40;93.70;;;;;;5020279;28;20120;-79
2021/09/26 10:52:43;;;;;;;16.55;10.40;;;22.40;94.50;;;;;;5003269;28;20116;-79
2021/09/26 10:55:15;;;;;;;14.57;10.15;;;22.30;94.50;;;;;;5020116;28;20017;-79
2021/09/26 10:57:45;;;;;;;23.30;16.77;;;22.40;94.70;;;;;;5020677;28;20059;-79
2021/09/26 11:00:33;;;;;;;20.25;15.70;;;22.40;94.70;;;;;;5020779;28;20060;-78
2021/09/26 11:03:07;;;;;;;19.73;13.45;;;22.40;94.80;;;;;;5021624;28;20022;-78
2021/09/26 11:05:40;;;;;;;25.35;16.13;;;22.30;95.10;;;;;;5017472;28;20069;-78
2021/09/26 11:08:36;;;;;;;22.27;15.80;;;22.40;95.20;;;;;;5012492;28;20038;-79
2021/09/26 11:11:02;;;;;;;21.38;14.73;;;22.40;95.10;;;;;;5012386;28;20117;-79
2021/09/26 11:13:32;;;;;;;18.50;14.38;;;22.50;95.50;;;;;;4994881;28;20037;-77
2021/09/26 11:16:05;;;;;;;18.98;12.82;;;22.50;95.00;;;;;;5012151;28;20022;-78
2021/09/26 11:18:50;;;;;;;15.57;12.43;;;22.50;94.80;;;;;;5022108;28;20543;-79
2021/09/26 11:21:38;;;;;;;14.23;10.93;;;22.60;94.90;;;;;;5031973;28;20021;-78
2021/09/26 11:24:25;;;;;;;17.13;10.27;;;22.60;94.60;;;;;;5018561;28;20033;-78
2021/09/26 11:26:59;;;;;;;13.43;8.80;;;22.70;94.80;;;;;;4971388;28;20057;-79
2021/09/26 11:29:25;;;;;;;16.63;8.70;;;22.70;94.80;;;;;;5020394;28;20030;-78
2021/09/26 11:31:51;;;;;;;14.55;8.10;;;22.70;95.00;;;;;;5019702;28;20032;-79
2021/09/26 11:34:39;;;;;;;10.32;7.35;;;22.70;94.90;;;;;;5012251;28;20440;-79
2021/09/26 11:37:06;;;;;;;12.50;8.50;;;22.80;94.90;;;;;;5012362;28;20500;-78
2021/09/26 11:39:32;;;;;;;9.95;7.03;;;22.80;94.80;;;;;;5004412;28;20021;-79
2021/09/26 11:41:58;;;;;;;12.15;6.78;;;22.90;94.80;;;;;;5031248;28;20485;-79
2021/09/26 11:44:24;;;;;;;9.02;6.88;;;22.80;94.60;;;;;;5027200;28;20867;-80
2021/09/26 11:46:53;;;;;;;7.85;6.72;;;22.80;94.70;;;;;;4994116;28;20109;-79
2021/09/26 11:49:20;;;;;;;13.23;6.65;;;22.80;94.70;;;;;;5020654;28;20029;-79
2021/09/26 11:51:48;;;;;;;8.90;5.57;;;22.90;94.50;;;;;;5030973;28;20044;-79
2021/09/26 11:54:14;;;;;;;7.32;6.28;;;22.90;94.70;;;;;;5030679;28;20032;-79
2021/09/26 11:56:41;;;;;;;12.95;5.90;;;22.90;94.50;;;;;;5031066;28;20514;-79
2021/09/26 11:59:11;;;;;;;9.57;5.70;;;22.90;94.00;;;;;;5031579;28;20032;-78
2021/09/26 12:01:46;;;;;;;7.85;5.13;;;22.90;94.00;;;;;;5031320;28;20026;-77
2021/09/26 12:04:13;;;;;;;6.70;5.23;;;22.90;94.20;;;;;;5031419;28;20097;-78
2021/09/26 12:06:42;;;;;;;10.77;5.68;;;22.90;94.10;;;;;;5013238;28;20304;-78
2021/09/26 12:09:07;;;;;;;9.38;6.72;;;22.90;94.10;;;;;;5029928;28;20038;-79
2021/09/26 12:11:50;;;;;;;7.28;5.40;;;22.90;94.30;;;;;;5031594;28;20040;-78
2021/09/26 12:14:23;;;;;;;7.13;5.45;;;22.90;94.30;;;;;;5010161;28;20485;-78
2021/09/26 12:16:49;;;;;;;7.85;5.93;;;22.90;94.20;;;;;;5006089;28;20028;-79
2021/09/26 12:19:15;;;;;;;7.28;5.65;;;22.90;94.20;;;;;;5030426;28;20397;-80
2021/09/26 12:21:41;;;;;;;9.93;6.15;;;22.90;94.30;;;;;;5031023;28;20049;-78
2021/09/26 12:24:09;;;;;;;9.15;5.78;;;22.90;94.50;;;;;;5025913;28;20033;-78
2021/09/26 12:26:40;;;;;;;7.85;5.57;;;22.90;94.50;;;;;;5030913;28;20022;-79
2021/09/26 12:29:11;;;;;;;10.52;5.97;;;22.90;94.40;;;;;;5030873;28;20042;-79
2021/09/26 12:31:40;;;;;;;7.43;5.18;;;22.90;94.30;;;;;;5006919;28;20049;-79
2021/09/26 12:34:09;;;;;;;10.07;6.10;;;22.90;94.40;;;;;;5031207;28;20060;-79
2021/09/26 12:36:40;;;;;;;7.22;5.65;;;22.80;94.30;;;;;;5027947;28;20034;-79
2021/09/26 12:39:12;;;;;;;8.75;6.32;;;22.80;94.50;;;;;;5022455;28;20493;-80
2021/09/26 12:41:37;;;;;;;7.93;5.40;;;22.90;94.40;;;;;;5010525;28;20036;-79
2021/09/26 12:44:11;;;;;;;7.65;5.07;;;22.80;94.50;;;;;;5024241;28;20041;-79
2021/09/26 12:46:39;;;;;;;7.90;5.45;;;22.80;94.30;;;;;;5023174;28;20018;-79
2021/09/26 12:49:12;;;;;;;9.27;5.40;;;22.80;94.10;;;;;;5010849;28;20140;-79
2021/09/26 12:51:46;;;;;;;6.90;5.18;;;22.80;94.10;;;;;;5010915;28;20022;-79